AirNav   Air Wisconsin Up To $57,000 Bonus
 
 1606 users online  

85KY Deer Run Airpark
New Castle, Kentucky, USA

GOING TO NEW CASTLE?


FAA INFORMATION EFFECTIVE 17 JUNE 2021

Location

FAA Identifier: 85KY
Lat/Long: 38-28-13.0000N 085-08-19.0000W
38-28.216667N 085-08.316667W
38.4702778,-85.1386111
(estimated)
Elevation: 890 ft. / 271.3 m (surveyed)
Variation: 02W (1985)
From city: 3 miles NE of NEW CASTLE, KY
Time zone: UTC -4 (UTC -5 during Standard Time)
Zip code: 40011

Airport Operations

Airport use: Private use. Permission required prior to landing
Activation date: 03/1988
Control tower: no
ARTCC: INDIANAPOLIS CENTER
FSS: LOUISVILLE FLIGHT SERVICE STATION
Attendance: IREG
Wind indicator: yes
Segmented circle: no

Nearby radio navigation aids

VOR radial/distance  VOR name  Freq  Var
FFTr331/(20.4)FRANKFORT VOR109.4003W
IIUr042/30.2LOUISVILLE VORTAC114.8001E
CVGr216/38.6CINCINNATI VORTAC117.3004W

Airport Services

Runway Information

Runway 14/32

Dimensions: 3100 x 60 ft. / 945 x 18 m
Surface: turf
Runway edge markings: RED CONES THLDS & EDGE.
RUNWAY 14  RUNWAY 32
Traffic pattern: leftleft
Obstructions: none14 ft. pline, marked, 300 ft. from runway

Airport Ownership and Management from official FAA records

Ownership: Privately-owned
Owner: DEER RUN AIRPARK OWNERS ASSN
2680 DRENNON RD
NEW CASTLE, KY 40050
Phone 502-845-2216
ADDTL PHONE 502-706-0108
Manager: WILLIAM G GEIGER
2680 DRENNON RD
NEW CASTLE, KY 40050
Phone 502-845-2216

Airport Operational Statistics

Aircraft based on the field: 9
Single engine airplanes: 9
    

Additional Remarks

FOR CD CTC LOUISVILLE APCH AT 502-375-7499

Instrument Procedures

There are no published instrument procedures at 85KY.

Some nearby airports with instrument procedures:

KFFT - Capital City Airport (20 nm SE)
KIMS - Madison Municipal Airport (23 nm NW)
KLOU - Bowman Field Airport (29 nm SW)
KJVY - Clark Regional Airport (29 nm W)
KSDF - Louisville Muhammad Ali International Airport (33 nm SW)
 
Loc | Ops | Rwys | IFR | FBO | Links
Com | Nav | Svcs | Stats | Notes
Area around 85KY (Deer Run Airpark)
 
Road maps at: MapQuest Bing Google
 
Aerial photo
No photo
 
Sectional chart

 
Airport distance calculator
Flying to Deer Run Airpark? Find the distance to fly.

From to 85KY

Sunrise and sunset
Times for 21-Jun-2021
 Local
(UTC-4)
 Zulu
(UTC)
Morning civil twilight05:4609:46
Sunrise06:1810:18
Sunset21:0701:07
Evening civil twilight21:3901:39

Current date and time
Zulu (UTC)  21-Jun-2021 16:36:10
Local (UTC-4)  21-Jun-2021 12:36:10
 
METAR
KFFT 
21nm SE 
211553Z AUTO 25008KT 10SM FEW060 SCT070 BKN085 28/22 A2977 RMK AO2 LTG DSNT SE SLP070 T02830217
KIMS 
23nm NW 
211555Z AUTO 26012G18KT 10SM BKN044 BKN085 BKN120 28/20 A2977 RMK AO2
KJVY 
29nm W 
211555Z AUTO 26009G16KT 10SM OVC038 28/18 A2975 RMK AO2 T02780182 TSNO
KLOU 
29nm SW 
211553Z 21009KT 10SM BKN042 BKN049 29/20 A2974 RMK AO2 LTG DSNT S AND SW SLP063 T02890200
KSDF 
33nm SW 
211556Z 23008KT 10SM BKN037 BKN070 BKN130 OVC200 29/22 A2974 RMK AO2 LTG DSNT S AND SW SLP063 T02940217
K27K 
36nm SE 
211615Z AUTO 23013G16KT 10SM BKN034 OVC039 27/21 A2978 RMK AO1
KLEX 
36nm SE 
211554Z 24008G19KT 10SM VCTS SCT026 BKN031 OVC048 27/22 A2979 RMK AO2 LTG DSNT E AND SE SLP076 T02670217 $
KK62 
38nm E 
211555Z AUTO 27008KT 220V300 10SM SCT031 BKN037 BKN043 28/21 A2974 RMK AO2
TAF
KSDF 
33nm SW 
211442Z 2115/2218 25013G22KT P6SM FEW030 SCT100 BKN250 TEMPO 2116/2117 3SM -TSRA BR BKN030CB FM211700 28014G18KT 6SM -TSRA SCT025CB BKN040 TEMPO 2117/2120 VRB20G30KT 2SM -TSRA BKN025CB FM212100 31013KT P6SM -SHRA BKN050 FM220300 33008KT P6SM OVC100
KLEX 
36nm SE 
211411Z 2114/2212 24015G23KT P6SM VCSH SCT025 BKN100 FM211600 25016G24KT P6SM VCTS SCT030CB BKN050 TEMPO 2116/2118 3SM -TSRA BKN030CB FM211800 26013KT 4SM -TSRA SCT025CB BKN035 TEMPO 2118/2122 VRB20G30KT 2SM -TSRA BKN025CB FM212300 29009KT 6SM -SHRA BR BKN025 FM220900 33005KT P6SM OVC035
NOTAMs
Click for the latest NOTAMs
NOTAMs are issued by the DoD/FAA and will open in a separate window not controlled by AirNav.

 

 
 

Would you like to see your business listed on this page?

 If your business provides an interesting product or service to pilots, flight crews, aircraft, or users of the Deer Run Airpark, you should consider listing it here.  To start the listing process, click on the button below
 
Add a business
 

Other Pages about Deer Run Airpark

Update a link
 
Copyright © AirNav, LLC. All rights reserved. Privacy Policy  Contact